Time;durP1;ratioP1;P1;durP2;ratioP2;P2;SDS_P1;SDS_P2;PMS_P1;PMS_P2;Temp;Humidity;BMP_temperature;BMP_pressure;BME280_temperature;BME280_humidity;BME280_pressure;Samples;Min_cycle;Max_cycle;Signal;HPM_P1;HPM_P2
2023/04/03 00:01:57;;;;;;;8.93;6.10;;;4.00;99.90;;;;;;5119567;28;20119;-64
2023/04/03 00:04:23;;;;;;;9.15;6.65;;;4.10;99.90;;;;;;5119724;28;20062;-64
2023/04/03 00:06:49;;;;;;;8.13;6.35;;;4.10;99.90;;;;;;5119931;28;20040;-64
2023/04/03 00:09:14;;;;;;;7.93;6.40;;;4.00;99.90;;;;;;5119695;28;20023;-64
2023/04/03 00:11:40;;;;;;;10.68;6.63;;;4.00;99.90;;;;;;5119621;28;20038;-64
2023/04/03 00:14:06;;;;;;;8.77;6.75;;;4.00;99.90;;;;;;5118928;28;20036;-64
2023/04/03 00:16:32;;;;;;;11.48;7.32;;;4.00;99.90;;;;;;5119431;28;20031;-64
2023/04/03 00:18:58;;;;;;;8.38;6.60;;;4.10;99.90;;;;;;5119547;28;20031;-65
2023/04/03 00:21:23;;;;;;;9.73;6.47;;;4.00;99.90;;;;;;5119453;28;20040;-64
2023/04/03 00:23:50;;;;;;;9.00;7.45;;;4.10;99.90;;;;;;5119324;28;20118;-64
2023/04/03 00:26:16;;;;;;;9.80;7.28;;;4.00;99.90;;;;;;5119332;28;20039;-64
2023/04/03 00:28:41;;;;;;;8.10;6.78;;;4.10;99.90;;;;;;5118558;28;20030;-64
2023/04/03 00:31:07;;;;;;;8.90;7.05;;;4.00;99.90;;;;;;5118516;28;20031;-65
2023/04/03 00:33:38;;;;;;;9.80;7.10;;;4.00;99.90;;;;;;5118502;28;20055;-64
2023/04/03 00:36:09;;;;;;;8.73;7.30;;;3.90;99.90;;;;;;5118773;28;20035;-65
2023/04/03 00:38:35;;;;;;;10.48;7.00;;;3.90;99.90;;;;;;5118540;28;20169;-65
2023/04/03 00:41:01;;;;;;;9.35;6.90;;;3.90;99.90;;;;;;5119117;28;20301;-65
2023/04/03 00:43:27;;;;;;;10.55;7.85;;;3.80;99.90;;;;;;5118344;28;20048;-64
2023/04/03 00:45:55;;;;;;;10.48;7.38;;;3.90;99.90;;;;;;5118175;28;20047;-65
2023/04/03 00:48:28;;;;;;;10.68;6.85;;;3.80;99.90;;;;;;5118997;28;20019;-65
2023/04/03 00:50:55;;;;;;;11.27;7.13;;;3.70;99.90;;;;;;5118841;28;20039;-64
2023/04/03 00:53:36;;;;;;;10.77;7.22;;;3.70;99.90;;;;;;5101042;28;20110;-65
2023/04/03 00:56:06;;;;;;;8.68;7.65;;;3.80;99.90;;;;;;5119209;28;20385;-64
2023/04/03 00:58:41;;;;;;;9.95;7.35;;;3.70;99.90;;;;;;5118989;28;20085;-64
2023/04/03 01:01:12;;;;;;;9.45;7.07;;;3.60;99.90;;;;;;5101019;28;20120;-64
2023/04/03 01:03:38;;;;;;;11.35;7.45;;;3.60;99.90;;;;;;5118022;28;20096;-64
2023/04/03 01:06:05;;;;;;;10.25;6.95;;;3.60;99.90;;;;;;5100916;28;20035;-64
2023/04/03 01:08:32;;;;;;;10.80;7.15;;;3.60;99.90;;;;;;5117807;28;20403;-64
2023/04/03 01:10:58;;;;;;;7.65;6.88;;;3.50;99.90;;;;;;5118827;28;20114;-64
2023/04/03 01:13:32;;;;;;;8.77;7.18;;;3.50;99.90;;;;;;5117025;28;20122;-64
2023/04/03 01:16:04;;;;;;;7.97;6.60;;;3.40;99.90;;;;;;5117640;28;20285;-64
2023/04/03 01:18:30;;;;;;;9.05;6.90;;;3.60;99.90;;;;;;5118368;28;20035;-64
2023/04/03 01:21:23;;;;;;;9.52;6.97;;;3.50;99.90;;;;;;5118391;28;20039;-64
2023/04/03 01:24:13;;;;;;;10.38;7.88;;;3.50;99.90;;;;;;5118286;28;20023;-64
2023/04/03 01:26:39;;;;;;;12.80;7.85;;;3.50;99.90;;;;;;5118173;28;20055;-64
2023/04/03 01:29:05;;;;;;;10.23;7.20;;;3.50;99.90;;;;;;5118191;28;20062;-65
2023/04/03 01:31:43;;;;;;;11.77;7.43;;;3.50;99.90;;;;;;5118140;28;20068;-65
2023/04/03 01:34:09;;;;;;;8.48;7.00;;;3.60;99.90;;;;;;5118327;28;20024;-64
2023/04/03 01:36:35;;;;;;;10.82;7.25;;;3.50;99.90;;;;;;5100310;28;20031;-64
2023/04/03 01:39:01;;;;;;;7.38;6.60;;;3.50;99.90;;;;;;5117478;28;20469;-64
2023/04/03 01:41:28;;;;;;;8.77;7.07;;;3.50;99.90;;;;;;5117038;28;20051;-64
2023/04/03 01:44:01;;;;;;;7.70;6.72;;;3.50;99.90;;;;;;5117148;28;20407;-64
2023/04/03 01:46:26;;;;;;;9.00;6.90;;;3.60;99.90;;;;;;5117809;28;20024;-64
2023/04/03 01:48:52;;;;;;;11.18;7.45;;;3.60;99.90;;;;;;5117150;28;20034;-64
2023/04/03 01:51:18;;;;;;;9.30;7.20;;;3.50;99.90;;;;;;5118327;28;20041;-64
2023/04/03 01:53:44;;;;;;;9.63;6.45;;;3.50;99.90;;;;;;5100087;28;20447;-65
2023/04/03 01:56:13;;;;;;;9.00;7.30;;;3.40;99.90;;;;;;5118000;28;20032;-64
2023/04/03 01:58:38;;;;;;;8.38;6.93;;;3.40;99.90;;;;;;5116923;28;20023;-64
2023/04/03 02:01:05;;;;;;;9.82;7.10;;;3.50;99.90;;;;;;5116862;28;20506;-64
2023/04/03 02:03:31;;;;;;;8.57;6.93;;;3.40;99.90;;;;;;5116776;28;20035;-64
2023/04/03 02:05:58;;;;;;;8.10;7.03;;;3.40;99.90;;;;;;5116851;28;20039;-64
2023/04/03 02:08:26;;;;;;;9.80;7.13;;;3.30;99.90;;;;;;5116632;28;20161;-64
2023/04/03 02:10:52;;;;;;;9.07;7.22;;;3.30;99.90;;;;;;5117457;28;20295;-64
2023/04/03 02:13:19;;;;;;;11.95;7.72;;;3.30;99.90;;;;;;5116674;28;20037;-65
2023/04/03 02:15:45;;;;;;;10.80;7.65;;;3.40;99.90;;;;;;5116689;28;20038;-64
2023/04/03 02:18:16;;;;;;;8.75;7.07;;;3.30;99.90;;;;;;5116653;28;20026;-64
2023/04/03 02:20:42;;;;;;;9.43;7.22;;;3.30;99.90;;;;;;5117448;28;20066;-64
2023/04/03 02:23:08;;;;;;;10.63;7.28;;;3.10;99.90;;;;;;5117344;28;20300;-64
2023/04/03 02:25:34;;;;;;;9.38;7.13;;;3.10;99.90;;;;;;5117174;28;20028;-64
2023/04/03 02:28:00;;;;;;;12.02;7.75;;;3.10;99.90;;;;;;5116635;28;20043;-64
2023/04/03 02:30:26;;;;;;;7.90;7.10;;;3.10;99.90;;;;;;5117306;28;20048;-64
2023/04/03 02:32:52;;;;;;;9.07;7.28;;;3.10;99.90;;;;;;5099527;28;20066;-64
2023/04/03 02:35:20;;;;;;;8.05;7.18;;;3.00;99.90;;;;;;5116383;28;20035;-64
2023/04/03 02:37:46;;;;;;;8.45;7.20;;;3.00;99.90;;;;;;5116447;28;20304;-64
2023/04/03 02:40:13;;;;;;;8.77;6.75;;;3.00;99.90;;;;;;5117134;28;20052;-64
2023/04/03 02:42:39;;;;;;;10.25;6.68;;;2.90;99.90;;;;;;5116951;28;20067;-64
2023/04/03 02:45:05;;;;;;;8.57;7.30;;;3.00;99.90;;;;;;5116289;28;20048;-64
2023/04/03 02:47:34;;;;;;;11.68;7.38;;;2.90;99.90;;;;;;5099538;28;20023;-64
2023/04/03 02:50:00;;;;;;;11.30;8.45;;;2.90;99.90;;;;;;5116386;28;20040;-64
2023/04/03 02:52:26;;;;;;;9.30;7.00;;;3.00;99.90;;;;;;5116280;28;20031;-64
2023/04/03 02:54:55;;;;;;;10.25;7.60;;;3.00;99.90;;;;;;5099849;28;20039;-64
2023/04/03 02:57:21;;;;;;;8.43;7.00;;;3.00;99.90;;;;;;5082525;28;20266;-64
2023/04/03 02:59:47;;;;;;;13.60;8.05;;;2.90;99.90;;;;;;5117303;28;20028;-64
2023/04/03 03:02:13;;;;;;;9.43;7.72;;;2.90;99.90;;;;;;5116181;28;20118;-65
2023/04/03 03:04:38;;;;;;;13.13;7.68;;;3.00;99.90;;;;;;5116211;28;20100;-65
2023/04/03 03:07:04;;;;;;;9.32;7.30;;;2.90;99.90;;;;;;5116807;28;20038;-64
2023/04/03 03:09:31;;;;;;;10.48;7.95;;;2.90;99.90;;;;;;5099344;28;20031;-65
2023/04/03 03:11:58;;;;;;;11.82;7.85;;;2.90;99.90;;;;;;5116122;28;20458;-64
2023/04/03 03:14:24;;;;;;;10.35;7.70;;;2.80;99.90;;;;;;5116169;28;20024;-65
2023/04/03 03:16:50;;;;;;;10.38;7.47;;;2.80;99.90;;;;;;5116138;28;20039;-64
2023/04/03 03:19:19;;;;;;;11.93;7.97;;;2.80;99.90;;;;;;5116115;28;20323;-65
2023/04/03 03:21:45;;;;;;;10.75;7.75;;;2.80;99.90;;;;;;5116021;28;20035;-65
2023/04/03 03:24:11;;;;;;;11.48;7.50;;;2.80;99.90;;;;;;5116044;28;20304;-65
2023/04/03 03:26:37;;;;;;;9.75;7.85;;;2.80;99.90;;;;;;5116734;28;20043;-65
2023/04/03 03:29:03;;;;;;;9.95;7.85;;;2.70;99.90;;;;;;5115899;28;20414;-64
2023/04/03 03:31:29;;;;;;;11.82;7.82;;;2.70;99.90;;;;;;5115950;28;20035;-64
2023/04/03 03:33:56;;;;;;;10.50;8.20;;;2.80;99.90;;;;;;5115907;28;20028;-65
2023/04/03 03:36:22;;;;;;;9.95;7.82;;;2.70;99.90;;;;;;5118431;28;20028;-64
2023/04/03 03:38:48;;;;;;;8.63;7.70;;;2.80;99.90;;;;;;5119526;28;20035;-65
2023/04/03 03:41:14;;;;;;;8.73;7.72;;;2.80;99.90;;;;;;5120114;28;20043;-65
2023/04/03 03:43:42;;;;;;;12.55;8.45;;;2.70;99.90;;;;;;5119417;28;20301;-64
2023/04/03 03:46:08;;;;;;;10.45;8.05;;;2.70;99.90;;;;;;5119414;28;20027;-64
2023/04/03 03:48:35;;;;;;;10.45;8.38;;;2.80;99.90;;;;;;5120103;28;20036;-65
2023/04/03 03:51:01;;;;;;;11.20;8.32;;;2.80;99.90;;;;;;5119399;28;20023;-64
2023/04/03 03:53:30;;;;;;;10.43;7.93;;;2.70;99.90;;;;;;5119248;28;20050;-65
2023/04/03 03:56:00;;;;;;;11.20;8.43;;;2.70;99.90;;;;;;5119438;28;20042;-64
2023/04/03 03:58:28;;;;;;;11.63;8.63;;;2.70;99.90;;;;;;5119091;28;20096;-65
2023/04/03 04:00:54;;;;;;;15.35;8.75;;;2.60;99.90;;;;;;5102172;28;20031;-65
2023/04/03 04:03:21;;;;;;;10.88;8.65;;;2.70;99.90;;;;;;5119013;28;20036;-65
2023/04/03 04:05:48;;;;;;;12.27;8.88;;;2.70;99.90;;;;;;5118977;28;20043;-64
2023/04/03 04:08:14;;;;;;;13.90;9.20;;;2.60;99.90;;;;;;5102187;28;20031;-64
2023/04/03 04:10:40;;;;;;;9.95;8.02;;;2.70;99.90;;;;;;5118839;28;20312;-64
2023/04/03 04:13:07;;;;;;;11.25;8.10;;;2.60;99.90;;;;;;5102010;28;20441;-65
2023/04/03 04:15:33;;;;;;;11.50;8.80;;;2.60;99.90;;;;;;5101879;28;20058;-65
2023/04/03 04:17:59;;;;;;;15.80;9.10;;;2.60;99.90;;;;;;5119601;28;20122;-65
2023/04/03 04:20:25;;;;;;;10.88;8.98;;;2.60;99.90;;;;;;5118824;28;20074;-65
2023/04/03 04:22:52;;;;;;;13.93;9.52;;;2.60;99.90;;;;;;5118669;28;20043;-64
2023/04/03 04:25:19;;;;;;;14.68;9.00;;;2.60;99.90;;;;;;5118826;28;20035;-65
2023/04/03 04:27:46;;;;;;;14.57;9.68;;;2.60;99.90;;;;;;5118479;28;20034;-65
2023/04/03 04:30:14;;;;;;;10.70;8.77;;;2.60;99.90;;;;;;5118534;28;20028;-65
2023/04/03 04:32:41;;;;;;;11.90;9.13;;;2.70;99.90;;;;;;5118444;28;20030;-65
2023/04/03 04:35:07;;;;;;;16.27;10.15;;;2.60;99.90;;;;;;5118407;28;20118;-64
2023/04/03 04:37:37;;;;;;;14.55;9.80;;;2.70;99.90;;;;;;5119272;28;20046;-65
2023/04/03 04:40:03;;;;;;;13.80;9.98;;;2.60;99.90;;;;;;5118350;28;20297;-64
2023/04/03 04:42:29;;;;;;;12.32;9.52;;;2.60;99.90;;;;;;5101391;28;20134;-65
2023/04/03 04:44:59;;;;;;;11.95;9.43;;;2.60;99.90;;;;;;5118197;28;20031;-65
2023/04/03 04:47:25;;;;;;;13.07;9.40;;;2.60;99.90;;;;;;5116988;28;20050;-65
2023/04/03 04:49:51;;;;;;;14.75;9.88;;;2.50;99.90;;;;;;5119007;28;20024;-66
2023/04/03 04:52:17;;;;;;;14.73;10.18;;;2.50;99.90;;;;;;5118100;28;20035;-63
2023/04/03 04:54:43;;;;;;;14.70;8.48;;;2.50;99.90;;;;;;5117952;28;20426;-63
2023/04/03 04:57:10;;;;;;;14.68;9.65;;;2.50;99.90;;;;;;5101118;28;20143;-63
2023/04/03 04:59:37;;;;;;;12.10;9.20;;;2.50;99.90;;;;;;5101166;28;20051;-63
2023/04/03 05:02:03;;;;;;;16.30;9.80;;;2.50;99.90;;;;;;5117625;28;20459;-64
2023/04/03 05:04:29;;;;;;;12.23;9.65;;;2.50;99.90;;;;;;5117758;28;20039;-64
2023/04/03 05:07:02;;;;;;;12.90;9.70;;;2.50;99.90;;;;;;5117517;28;20148;-64
2023/04/03 05:09:30;;;;;;;13.98;9.82;;;2.50;99.90;;;;;;5117773;28;20028;-64
2023/04/03 05:11:56;;;;;;;14.52;10.00;;;2.60;99.90;;;;;;5117433;28;20034;-65
2023/04/03 05:14:25;;;;;;;14.48;9.98;;;2.60;99.90;;;;;;5117438;28;20386;-63
2023/04/03 05:16:53;;;;;;;12.95;9.55;;;2.60;99.90;;;;;;5101141;28;20085;-64
2023/04/03 05:19:21;;;;;;;11.68;9.40;;;2.50;99.90;;;;;;5117512;28;20050;-63
2023/04/03 05:21:48;;;;;;;14.35;10.30;;;2.50;99.90;;;;;;5117616;28;20039;-64
2023/04/03 05:24:16;;;;;;;15.43;10.15;;;2.40;99.90;;;;;;5100711;28;20396;-64
2023/04/03 05:26:43;;;;;;;13.65;10.38;;;2.40;99.90;;;;;;5117306;28;20031;-64
2023/04/03 05:29:13;;;;;;;14.32;10.30;;;2.50;99.90;;;;;;5100440;28;20304;-64
2023/04/03 05:31:40;;;;;;;13.57;10.50;;;2.60;99.90;;;;;;5117173;28;20028;-65
2023/04/03 05:34:07;;;;;;;12.70;9.80;;;2.60;99.90;;;;;;5100760;28;20404;-65
2023/04/03 05:36:35;;;;;;;14.15;10.80;;;2.60;99.90;;;;;;5118002;28;20047;-65
2023/04/03 05:39:05;;;;;;;16.73;11.05;;;2.60;99.90;;;;;;5100665;28;20278;-65
2023/04/03 05:41:32;;;;;;;13.60;9.85;;;2.50;99.90;;;;;;5100466;28;20113;-65
2023/04/03 05:43:58;;;;;;;16.38;10.52;;;2.50;99.90;;;;;;5117907;28;20327;-64
2023/04/03 05:46:25;;;;;;;16.63;10.75;;;2.40;99.90;;;;;;5117879;28;20039;-64
2023/04/03 05:48:54;;;;;;;14.27;10.60;;;2.40;99.90;;;;;;5117069;28;20419;-64
2023/04/03 05:51:30;;;;;;;16.17;10.95;;;2.50;99.90;;;;;;5117031;28;20345;-64
2023/04/03 05:54:07;;;;;;;13.77;10.80;;;2.50;99.90;;;;;;5117946;28;20292;-64
2023/04/03 05:56:33;;;;;;;16.95;11.10;;;2.60;99.90;;;;;;5117002;28;20118;-64
2023/04/03 05:58:58;;;;;;;16.77;10.68;;;2.70;99.90;;;;;;5117337;28;20106;-63
2023/04/03 06:01:26;;;;;;;14.68;10.60;;;2.80;99.90;;;;;;5116725;28;20039;-64
2023/04/03 06:03:52;;;;;;;16.52;11.68;;;2.80;99.90;;;;;;5099911;28;20043;-64
2023/04/03 06:06:18;;;;;;;18.52;11.43;;;3.00;99.90;;;;;;5117380;28;20032;-64
2023/04/03 06:08:44;;;;;;;15.40;11.43;;;3.10;99.90;;;;;;5117523;28;20405;-64
2023/04/03 06:11:11;;;;;;;15.25;11.10;;;3.10;99.90;;;;;;5099858;28;20036;-64
2023/04/03 06:13:38;;;;;;;13.38;10.48;;;3.20;99.90;;;;;;5117444;28;20416;-64
2023/04/03 06:16:04;;;;;;;17.80;10.93;;;3.20;99.90;;;;;;5118016;28;20036;-65
2023/04/03 06:18:30;;;;;;;13.57;10.70;;;3.40;99.90;;;;;;5117483;28;20044;-65
2023/04/03 06:20:57;;;;;;;13.48;10.82;;;3.30;99.90;;;;;;5099795;28;20295;-64
2023/04/03 06:23:23;;;;;;;14.90;10.65;;;3.40;99.90;;;;;;5117354;28;20047;-64
2023/04/03 06:25:49;;;;;;;13.98;10.07;;;3.40;99.90;;;;;;5117216;28;20393;-63
2023/04/03 06:28:15;;;;;;;13.95;9.52;;;3.40;99.90;;;;;;5117430;28;20128;-67
2023/04/03 06:30:41;;;;;;;13.48;9.80;;;3.50;99.90;;;;;;5117335;28;20293;-64
2023/04/03 06:33:07;;;;;;;12.70;9.48;;;3.50;99.90;;;;;;5117184;28;20043;-64
2023/04/03 06:35:34;;;;;;;14.65;8.75;;;3.60;99.90;;;;;;5117266;28;20036;-63
2023/04/03 06:38:00;;;;;;;9.95;8.38;;;3.60;99.90;;;;;;5117232;28;20032;-63
2023/04/03 06:40:26;;;;;;;11.32;8.02;;;3.70;99.90;;;;;;5117856;28;20397;-64
2023/04/03 06:42:52;;;;;;;10.75;7.63;;;3.70;99.90;;;;;;5116987;28;20087;-65
2023/04/03 06:45:20;;;;;;;12.23;8.20;;;3.80;99.90;;;;;;5099549;28;20349;-65
2023/04/03 06:47:45;;;;;;;11.75;7.75;;;3.90;99.90;;;;;;5116692;28;20353;-64
2023/04/03 06:50:14;;;;;;;11.02;6.65;;;4.00;98.20;;;;;;5116942;28;20110;-64
2023/04/03 06:52:41;;;;;;;10.43;6.47;;;4.00;94.80;;;;;;5116889;28;20048;-66
2023/04/03 06:55:08;;;;;;;8.73;6.80;;;4.20;97.30;;;;;;5116923;28;20177;-65
2023/04/03 06:57:34;;;;;;;8.65;5.72;;;4.50;92.90;;;;;;5116989;28;20043;-66
2023/04/03 06:59:59;;;;;;;8.98;5.85;;;4.50;85.90;;;;;;5117063;28;20031;-62
2023/04/03 07:02:26;;;;;;;8.43;5.82;;;4.60;80.10;;;;;;5116791;28;20027;-61
2023/04/03 07:04:51;;;;;;;7.30;5.20;;;4.80;86.70;;;;;;5116973;28;20028;-63
2023/04/03 07:07:17;;;;;;;6.53;5.15;;;5.00;68.80;;;;;;5099282;28;20035;-65
2023/04/03 07:09:43;;;;;;;9.20;5.07;;;4.90;64.40;;;;;;5116796;28;20024;-68
2023/04/03 07:12:09;;;;;;;11.02;5.40;;;5.00;65.00;;;;;;5102131;28;20053;-67
2023/04/03 07:14:35;;;;;;;8.95;5.20;;;5.00;67.60;;;;;;5120196;28;20051;-62
2023/04/03 07:17:01;;;;;;;9.38;5.38;;;5.00;60.00;;;;;;5120563;28;20059;-63
2023/04/03 07:19:27;;;;;;;9.43;4.78;;;5.10;62.80;;;;;;5120379;28;20092;-64
2023/04/03 07:21:54;;;;;;;6.35;4.47;;;5.20;60.70;;;;;;5120739;28;20086;-64
2023/04/03 07:24:20;;;;;;;7.43;4.50;;;5.20;51.90;;;;;;5120702;28;20040;-64
2023/04/03 07:26:51;;;;;;;6.05;3.90;;;5.10;54.00;;;;;;5103114;28;20043;-63
2023/04/03 07:29:17;;;;;;;8.38;4.18;;;5.20;45.80;;;;;;5120531;28;20024;-63
2023/04/03 07:31:44;;;;;;;5.65;3.50;;;5.00;44.70;;;;;;5119713;28;20396;-64
2023/04/03 07:34:11;;;;;;;7.55;4.18;;;4.90;50.10;;;;;;5120435;28;20024;-63
2023/04/03 07:36:37;;;;;;;7.22;3.80;;;5.00;55.00;;;;;;5120913;28;20410;-63
2023/04/03 07:39:03;;;;;;;9.68;3.90;;;5.10;47.80;;;;;;5120335;28;20057;-64
2023/04/03 07:41:30;;;;;;;9.07;3.83;;;5.20;41.00;;;;;;5120357;28;20059;-63
2023/04/03 07:43:56;;;;;;;6.57;3.90;;;5.30;36.80;;;;;;5119557;28;20031;-63
2023/04/03 07:46:22;;;;;;;5.55;3.20;;;5.20;31.20;;;;;;5119416;28;20046;-63
2023/04/03 07:48:49;;;;;;;4.43;3.42;;;5.30;38.60;;;;;;5119469;28;20039;-63
2023/04/03 07:51:16;;;;;;;5.70;3.05;;;5.40;35.60;;;;;;5120050;28;20043;-63
2023/04/03 07:53:42;;;;;;;7.35;3.13;;;5.40;24.10;;;;;;5120054;28;20028;-63
2023/04/03 07:56:09;;;;;;;7.38;3.30;;;5.30;24.00;;;;;;5120101;28;20297;-63
2023/04/03 07:58:35;;;;;;;6.97;3.10;;;5.40;22.70;;;;;;5120089;28;20020;-63
2023/04/03 08:01:01;;;;;;;6.45;2.75;;;5.50;16.30;;;;;;5119352;28;20050;-63
2023/04/03 08:03:27;;;;;;;5.68;2.70;;;5.60;18.80;;;;;;5120030;28;20032;-63
2023/04/03 08:05:53;;;;;;;6.20;2.92;;;5.60;8.00;;;;;;5119323;28;20046;-63
2023/04/03 08:08:22;;;;;;;4.28;2.80;;;5.70;11.00;;;;;;5119364;28;20396;-64
2023/04/03 08:10:52;;;;;;;5.57;3.00;;;6.00;3.80;;;;;;5119853;28;20023;-63
2023/04/03 08:13:19;;;;;;;4.18;2.80;;;6.10;6.60;;;;;;5119818;27;20061;-63
2023/04/03 08:15:48;;;;;;;4.47;2.58;;;6.20;1.00;;;;;;5119715;28;20515;-64
2023/04/03 08:18:15;;;;;;;5.97;2.60;;;6.20;1.00;;;;;;5119691;28;20036;-63
2023/04/03 08:20:42;;;;;;;6.05;2.80;;;6.20;1.00;;;;;;5118946;28;20468;-64
2023/04/03 08:23:08;;;;;;;6.28;2.60;;;6.20;1.00;;;;;;5119543;28;20047;-64
2023/04/03 08:25:38;;;;;;;5.38;2.45;;;6.30;1.00;;;;;;5119483;28;20036;-62
2023/04/03 08:28:04;;;;;;;5.68;2.80;;;6.50;1.00;;;;;;5119503;28;20107;-61
2023/04/03 08:30:30;;;;;;;4.88;2.42;;;6.20;1.00;;;;;;5118707;28;20071;-62
2023/04/03 08:32:56;;;;;;;5.90;2.80;;;6.20;1.00;;;;;;5119348;28;20050;-62
2023/04/03 08:35:21;;;;;;;4.93;2.45;;;6.30;1.00;;;;;;5119361;28;20032;-63
2023/04/03 08:37:47;;;;;;;3.63;1.95;;;6.50;1.00;;;;;;5119197;28;20110;-63
2023/04/03 08:40:16;;;;;;;4.82;2.30;;;6.70;1.00;;;;;;5119860;28;20046;-62
2023/04/03 08:43:08;;;;;;;4.78;2.47;;;6.70;1.00;;;;;;5118359;28;20047;-63
2023/04/03 08:45:53;;;;;;;4.60;2.10;;;6.70;1.00;;;;;;5119086;28;20035;-63
2023/04/03 08:48:20;;;;;;;9.13;2.55;;;6.80;1.00;;;;;;5119306;28;20034;-62
2023/04/03 08:50:53;;;;;;;6.60;1.98;;;7.00;1.00;;;;;;5119667;28;20035;-62
2023/04/03 08:53:22;;;;;;;;;;;6.90;1.00;;;;;;5119436;28;20055;-62
2023/04/03 08:55:53;;;;;;;3.72;1.77;;;7.10;1.00;;;;;;5118881;28;19915;-63
2023/04/03 08:58:25;;;;;;;4.38;2.13;;;7.00;1.00;;;;;;5118834;28;20051;-62
2023/04/03 09:00:54;;;;;;;;;;;7.10;1.00;;;;;;5119200;28;20078;-63
2023/04/03 09:03:22;;;;;;;3.85;1.52;;;7.20;1.00;;;;;;5118029;28;19914;-63
2023/04/03 09:06:02;;;;;;;3.72;1.90;;;7.20;1.00;;;;;;5118612;28;20118;-62
2023/04/03 09:08:31;;;;;;;3.65;1.70;;;7.30;1.00;;;;;;5118895;28;20100;-63
2023/04/03 09:11:29;;;;;;;3.00;1.60;;;7.40;1.00;;;;;;5117973;28;20047;-64
2023/04/03 09:14:02;;;;;;;4.80;1.60;;;7.40;1.00;;;;;;5118624;28;20031;-63
2023/04/03 09:16:57;;;;;;;5.20;1.60;;;7.50;1.00;;;;;;5118534;28;20031;-64
2023/04/03 09:19:36;;;;;;;6.10;1.80;;;7.40;1.00;;;;;;5118496;28;20039;-63
2023/04/03 09:22:42;;;;;;;2.90;1.58;;;7.50;1.00;;;;;;5118449;28;20405;-63
2023/04/03 09:25:19;;;;;;;3.95;1.55;;;7.50;1.00;;;;;;5056343;28;20326;-64
2023/04/03 09:27:46;;;;;;;7.03;1.63;;;7.70;1.00;;;;;;5056270;28;20029;-64
2023/04/03 09:30:21;;;;;;;4.53;1.63;;;7.60;1.00;;;;;;5091190;28;20040;-64
2023/04/03 09:32:50;;;;;;;5.47;1.60;;;7.80;1.00;;;;;;5118081;28;20016;-64
2023/04/03 09:35:32;;;;;;;3.75;1.60;;;8.00;1.00;;;;;;5116941;28;20080;-63
2023/04/03 09:38:00;;;;;;;3.38;1.42;;;8.10;1.00;;;;;;5118464;28;20066;-63
2023/04/03 09:40:26;;;;;;;5.68;1.50;;;8.30;1.00;;;;;;5118439;28;20035;-63
2023/04/03 09:42:54;;;;;;;5.82;1.30;;;8.40;1.00;;;;;;5117716;28;20051;-62
2023/04/03 09:45:34;;;;;;;3.20;1.30;;;8.30;1.00;;;;;;5117088;28;20031;-62
2023/04/03 09:48:12;;;;;;;2.42;1.25;;;8.30;1.00;;;;;;5117417;28;20124;-63
2023/04/03 09:51:01;;;;;;;3.75;1.20;;;8.30;1.00;;;;;;5117072;28;20070;-63
2023/04/03 09:53:35;;;;;;;3.42;1.33;;;8.20;1.00;;;;;;5118042;27;20084;-64
2023/04/03 09:56:05;;;;;;;2.17;1.13;;;8.30;1.00;;;;;;5117027;28;20038;-64
2023/04/03 09:58:37;;;;;;;4.03;1.13;;;8.40;1.00;;;;;;5116933;28;20058;-63
2023/04/03 10:01:03;;;;;;;3.38;1.25;;;8.50;1.00;;;;;;5118177;28;20392;-63
2023/04/03 10:03:35;;;;;;;2.67;1.40;;;8.50;1.00;;;;;;5117028;28;20411;-63
2023/04/03 10:06:03;;;;;;;3.53;1.60;;;8.60;1.00;;;;;;5117858;28;20074;-64
2023/04/03 10:08:34;;;;;;;3.58;1.20;;;8.70;99.90;;;;;;5117543;28;20051;-63
2023/04/03 10:11:18;;;;;;;2.07;1.00;;;8.80;46.30;;;;;;5116836;28;20289;-63
2023/04/03 10:13:59;;;;;;;3.30;1.17;;;8.90;1.00;;;;;;5117430;28;20106;-63
2023/04/03 10:16:43;;;;;;;4.50;1.10;;;9.20;99.90;;;;;;5117489;28;20087;-63
2023/04/03 10:19:47;;;;;;;3.25;1.20;;;9.20;1.00;;;;;;5117310;28;20059;-62
2023/04/03 10:22:34;;;;;;;2.95;1.17;;;9.40;1.00;;;;;;5092289;28;20035;-63
2023/04/03 10:25:14;;;;;;;3.47;1.08;;;9.40;99.90;;;;;;5117133;28;20019;-63
2023/04/03 10:28:07;;;;;;;1.52;0.82;;;9.60;8.30;;;;;;5117626;28;20400;-63
2023/04/03 10:30:56;;;;;;;;;;;9.90;99.90;;;;;;5109500;28;20047;-62
2023/04/03 10:33:36;;;;;;;3.53;1.08;;;9.80;99.90;;;;;;5078959;28;19907;-62
2023/04/03 10:36:30;;;;;;;1.83;1.10;;;9.60;99.90;;;;;;5116921;28;20031;-60
2023/04/03 10:39:01;;;;;;;1.75;0.75;;;9.60;99.90;;;;;;5106276;28;20086;-60
2023/04/03 10:41:33;;;;;;;3.03;0.98;;;10.00;1.00;;;;;;5116285;28;20081;-60
2023/04/03 10:44:17;;;;;;;2.50;1.15;;;10.90;1.00;;;;;;5116501;28;20396;-61
2023/04/03 10:46:55;;;;;;;2.08;1.05;;;11.60;1.00;;;;;;5122156;28;20035;-61
2023/04/03 10:49:46;;;;;;;1.88;0.90;;;12.20;1.00;;;;;;5121269;28;20387;-60
2023/04/03 10:52:23;;;;;;;2.08;1.02;;;12.30;1.00;;;;;;5121262;28;20342;-59
2023/04/03 10:55:13;;;;;;;2.13;0.70;;;12.90;99.90;;;;;;5121432;28;20304;-59
2023/04/03 10:57:40;;;;;;;1.60;0.88;;;12.30;1.00;;;;;;5121607;28;20116;-59
2023/04/03 11:00:18;;;;;;;2.97;0.95;;;12.40;1.00;;;;;;5121253;28;20270;-59
2023/04/03 11:02:56;;;;;;;1.73;1.17;;;12.00;1.00;;;;;;5121172;28;20027;-60
2023/04/03 11:05:45;;;;;;;1.70;0.80;;;12.70;1.00;;;;;;5121153;27;20384;-60
2023/04/03 11:08:34;;;;;;;2.47;0.80;;;12.80;99.90;;;;;;5121361;28;20035;-60
2023/04/03 11:11:08;;;;;;;4.40;0.88;;;13.00;99.90;;;;;;5121346;28;20181;-60
2023/04/03 11:13:49;;;;;;;1.58;0.80;;;13.20;24.80;;;;;;5120948;28;20047;-60
2023/04/03 11:16:24;;;;;;;2.08;0.80;;;13.80;99.90;;;;;;5120989;27;20080;-60
2023/04/03 11:18:59;;;;;;;2.30;0.90;;;14.10;1.00;;;;;;5120873;28;20440;-60
2023/04/03 11:21:30;;;;;;;3.10;0.90;;;14.70;1.00;;;;;;5121468;27;20041;-60
2023/04/03 11:23:58;;;;;;;2.10;0.75;;;14.20;1.00;;;;;;5120693;28;20063;-60
2023/04/03 11:26:29;;;;;;;2.28;0.63;;;13.50;1.00;;;;;;5120505;28;20427;-60
2023/04/03 11:29:14;;;;;;;1.92;0.90;;;13.30;1.00;;;;;;5120883;28;20288;-60
2023/04/03 11:32:00;;;;;;;2.33;0.80;;;13.60;1.00;;;;;;5120569;27;20028;-60
2023/04/03 11:34:41;;;;;;;1.45;0.70;;;13.80;1.00;;;;;;5120547;28;20027;-61
2023/04/03 11:37:22;;;;;;;1.85;0.80;;;14.60;1.00;;;;;;5120634;28;20080;-61
2023/04/03 11:39:57;;;;;;;2.80;0.82;;;15.80;1.00;;;;;;5120975;28;20024;-61
2023/04/03 11:42:36;;;;;;;1.73;0.60;;;15.50;1.00;;;;;;5120161;28;20040;-60
2023/04/03 11:45:31;;;;;;;2.15;0.70;;;15.10;1.00;;;;;;5120144;28;20023;-60
2023/04/03 11:47:58;;;;;;;0.95;0.60;;;14.00;1.00;;;;;;5065831;28;20041;-58
2023/04/03 11:50:46;;;;;;;1.17;0.43;;;14.20;1.00;;;;;;5119399;28;20063;-58
2023/04/03 11:53:11;;;;;;;3.83;0.70;;;14.90;1.00;;;;;;5120098;28;20027;-60
2023/04/03 11:55:45;;;;;;;2.17;0.70;;;15.80;99.90;;;;;;5119905;28;20100;-60
2023/04/03 11:58:17;;;;;;;1.25;0.45;;;15.80;99.90;;;;;;5118377;28;20032;-61
2023/04/03 12:00:46;;;;;;;5.30;0.50;;;15.20;99.90;;;;;;5120065;28;20031;-61
2023/04/03 12:03:27;;;;;;;0.60;0.45;;;14.60;99.90;;;;;;5119893;28;20038;-61
2023/04/03 12:06:13;;;;;;;1.45;0.75;;;14.80;99.90;;;;;;5119796;28;20100;-61
2023/04/03 12:08:42;;;;;;;4.07;2.10;;;14.30;99.90;;;;;;5088569;28;20044;-61
2023/04/03 12:11:13;;;;;;;1.23;0.70;;;14.40;99.90;;;;;;5119732;28;20376;-61
2023/04/03 12:13:59;;;;;;;1.38;0.52;;;14.70;99.90;;;;;;5119665;27;20404;-61
2023/04/03 12:16:30;;;;;;;1.85;0.52;;;15.90;99.90;;;;;;5118940;28;20281;-59
2023/04/03 12:18:59;;;;;;;0.77;0.50;;;16.30;99.90;;;;;;5119677;28;20095;-59
2023/04/03 12:21:33;;;;;;;1.20;0.65;;;16.70;99.90;;;;;;5119906;28;20396;-60
2023/04/03 12:24:02;;;;;;;1.40;0.82;;;17.60;99.90;;;;;;5119545;28;20066;-61
2023/04/03 12:26:34;;;;;;;4.00;0.70;;;16.70;99.90;;;;;;5119282;28;20295;-60
2023/04/03 12:29:13;;;;;;;1.90;0.90;;;16.80;99.90;;;;;;5118541;28;20031;-61
2023/04/03 12:31:54;;;;;;;1.70;0.80;;;17.50;99.90;;;;;;5120636;28;20457;-60
2023/04/03 12:34:35;;;;;;;3.25;0.90;;;17.20;99.90;;;;;;5119360;28;20415;-61
2023/04/03 12:37:07;;;;;;;1.05;0.60;;;17.80;99.90;;;;;;5119272;28;20037;-61
2023/04/03 12:39:42;;;;;;;16.73;5.22;;;16.90;99.90;;;;;;5119219;28;20088;-61
2023/04/03 12:42:31;;;;;;;1.20;0.77;;;16.80;99.90;;;;;;5119210;28;20065;-61
2023/04/03 12:45:15;;;;;;;0.80;0.68;;;17.50;99.90;;;;;;5119689;28;20035;-60
2023/04/03 12:47:43;;;;;;;1.55;0.80;;;16.40;99.90;;;;;;5119057;28;20031;-60
2023/04/03 12:50:21;;;;;;;1.95;0.90;;;16.20;99.90;;;;;;5119472;28;20040;-61
2023/04/03 12:53:02;;;;;;;1.25;0.70;;;16.30;99.90;;;;;;5118734;28;20023;-61
2023/04/03 12:55:28;;;;;;;1.48;0.60;;;16.20;99.90;;;;;;5118899;28;20152;-59
2023/04/03 12:57:54;;;;;;;1.63;0.93;;;15.50;99.90;;;;;;5118712;28;20042;-61
2023/04/03 13:00:28;;;;;;;1.05;0.70;;;15.10;99.90;;;;;;5118301;28;20302;-61
2023/04/03 13:02:55;;;;;;;2.00;0.80;;;16.10;99.90;;;;;;5117747;28;20089;-62
2023/04/03 13:05:23;;;;;;;1.60;0.73;;;16.30;99.90;;;;;;5119053;28;20278;-62
2023/04/03 13:07:56;;;;;;;2.60;0.90;;;16.00;99.90;;;;;;5118102;27;20031;-61
2023/04/03 13:10:22;;;;;;;1.67;0.73;;;16.00;99.90;;;;;;5118782;28;20059;-62